createdAt,value
2019-03-03T00:00:03.114Z,6.1
2019-03-03T00:01:02.774Z,6.1
2019-03-03T00:02:02.845Z,6.1
2019-03-03T00:03:02.893Z,6.1
2019-03-03T00:04:03.060Z,6.1
2019-03-03T00:05:02.980Z,6.1
2019-03-03T00:06:02.811Z,6.1
2019-03-03T00:07:03.714Z,6.1
2019-03-03T00:08:03.701Z,6.1
2019-03-03T00:09:03.670Z,6.1
2019-03-03T00:10:03.733Z,6.1
2019-03-03T00:11:03.718Z,6.1
2019-03-03T00:12:03.480Z,6.1
2019-03-03T00:13:03.019Z,6.1
2019-03-03T00:14:04.400Z,6.1
2019-03-03T00:15:03.181Z,6.1
2019-03-03T00:16:02.782Z,6.1
2019-03-03T00:17:02.973Z,6.1
2019-03-03T00:18:03.642Z,6.2
2019-03-03T00:19:03.566Z,6.2
2019-03-03T00:20:03.592Z,6.1
2019-03-03T00:21:02.669Z,6.2
2019-03-03T00:22:03.606Z,6.1
2019-03-03T00:23:03.486Z,6.1
2019-03-03T00:24:03.783Z,6.1
2019-03-03T00:25:03.480Z,6.2
2019-03-03T00:26:03.674Z,6.1
2019-03-03T00:27:03.520Z,6.1
2019-03-03T00:28:03.674Z,6.1
2019-03-03T00:29:03.569Z,6.1
2019-03-03T00:30:03.635Z,6.1
2019-03-03T00:31:03.655Z,6.1
2019-03-03T00:32:03.398Z,6.1
2019-03-03T00:33:03.466Z,6.1
2019-03-03T00:34:03.213Z,6.1
2019-03-03T00:35:03.061Z,6.1
2019-03-03T00:36:03.120Z,6.1
2019-03-03T00:37:03.425Z,6.1
2019-03-03T00:38:03.378Z,6.1
2019-03-03T00:39:03.343Z,6.1
2019-03-03T00:40:03.500Z,6.1
2019-03-03T00:41:02.963Z,6.1
2019-03-03T00:42:03.364Z,6.1
2019-03-03T00:43:03.341Z,6.1
2019-03-03T00:44:03.712Z,6.1
2019-03-03T00:45:03.556Z,6.1
2019-03-03T00:46:03.411Z,6.1
2019-03-03T00:47:03.607Z,6.1
2019-03-03T00:48:03.638Z,6.1
2019-03-03T00:49:03.464Z,6.1
2019-03-03T00:50:03.190Z,6.1
2019-03-03T00:51:03.447Z,6.1
2019-03-03T00:52:03.389Z,6.1
2019-03-03T00:53:03.359Z,6.1
2019-03-03T00:54:03.356Z,6.1
2019-03-03T00:55:03.402Z,6.1
2019-03-03T00:56:03.468Z,6.1
2019-03-03T00:57:03.281Z,6.1
2019-03-03T00:58:03.699Z,6.1
2019-03-03T00:59:03.372Z,6.1
2019-03-03T01:00:03.224Z,6
2019-03-03T01:01:03.365Z,6
2019-03-03T01:02:03.165Z,6
2019-03-03T01:03:03.091Z,6
2019-03-03T01:04:03.257Z,6
2019-03-03T01:05:03.450Z,5.9
2019-03-03T01:06:03.231Z,5.9
2019-03-03T01:07:03.135Z,6
2019-03-03T01:08:03.244Z,5.9
2019-03-03T01:09:03.039Z,5.9
2019-03-03T01:10:03.211Z,5.9
2019-03-03T01:11:02.920Z,5.9
2019-03-03T01:12:02.960Z,5.9
2019-03-03T01:13:02.999Z,5.9
2019-03-03T01:14:02.491Z,5.9
2019-03-03T01:15:02.949Z,5.9
2019-03-03T01:16:03.017Z,5.9
2019-03-03T01:17:03.485Z,5.9
2019-03-03T01:18:02.915Z,5.9
2019-03-03T01:19:02.845Z,5.9
2019-03-03T01:20:02.912Z,5.9
2019-03-03T01:21:03.758Z,6
2019-03-03T01:22:03.804Z,6
2019-03-03T01:23:03.600Z,6
2019-03-03T01:24:03.327Z,5.9
2019-03-03T01:25:03.632Z,6.1
2019-03-03T01:26:03.436Z,6.1
2019-03-03T01:27:02.799Z,6.1
2019-03-03T01:28:03.563Z,6
2019-03-03T01:29:03.465Z,6.1
2019-03-03T01:30:03.569Z,6.1
2019-03-03T01:31:03.183Z,6.1
2019-03-03T01:32:03.557Z,6.1
2019-03-03T01:33:03.466Z,6.1
2019-03-03T01:34:03.434Z,6.1
2019-03-03T01:35:03.669Z,6.1
2019-03-03T01:36:03.347Z,6.1
2019-03-03T01:37:03.337Z,6.1
2019-03-03T01:38:03.244Z,6.1
2019-03-03T01:39:03.245Z,6.2
2019-03-03T01:40:03.403Z,6.2
2019-03-03T01:41:03.311Z,6.2
2019-03-03T01:42:03.337Z,6.2
2019-03-03T01:43:03.209Z,6.2
2019-03-03T01:44:03.052Z,6.2
2019-03-03T01:45:03.084Z,6.3
2019-03-03T01:46:03.200Z,6.3
2019-03-03T01:47:03.314Z,6.3
2019-03-03T01:48:03.056Z,6.3
2019-03-03T01:49:03.052Z,6.3
2019-03-03T01:50:03.023Z,6.3
2019-03-03T01:51:03.039Z,6.3
2019-03-03T01:52:02.605Z,6.3
2019-03-03T01:53:02.946Z,6.3
2019-03-03T01:54:02.473Z,6.3
2019-03-03T01:55:02.980Z,6.2
2019-03-03T01:56:02.830Z,6.3
2019-03-03T01:57:02.985Z,6.3
2019-03-03T01:58:03.353Z,6.3
2019-03-03T01:59:02.931Z,6.3
2019-03-03T02:00:02.782Z,6.3
2019-03-03T02:01:03.467Z,6.3
2019-03-03T02:02:03.390Z,6.3
2019-03-03T02:03:03.433Z,6.3
2019-03-03T02:04:03.643Z,6.3
2019-03-03T02:05:03.678Z,6.3
2019-03-03T02:06:03.633Z,6.3
2019-03-03T02:07:03.730Z,6.3
2019-03-03T02:08:03.631Z,6.3
2019-03-03T02:09:03.479Z,6.3
2019-03-03T02:10:02.810Z,6.3
2019-03-03T02:11:03.505Z,6.3
2019-03-03T02:12:02.700Z,6.3
2019-03-03T02:13:03.653Z,6.3
2019-03-03T02:14:03.399Z,6.3
2019-03-03T02:15:03.779Z,6.3
2019-03-03T02:16:02.259Z,6.3
2019-03-03T02:17:03.752Z,6.4
2019-03-03T02:18:03.585Z,6.4
2019-03-03T02:19:03.508Z,6.3
2019-03-03T02:20:03.329Z,6.4
2019-03-03T02:21:03.567Z,6.4
2019-03-03T02:22:03.573Z,6.3
2019-03-03T02:23:03.253Z,6.3
2019-03-03T02:24:03.298Z,6.4
2019-03-03T02:25:03.345Z,6.4
2019-03-03T02:26:03.177Z,6.3
2019-03-03T02:27:03.241Z,6.3
2019-03-03T02:28:03.331Z,6.3
2019-03-03T02:29:03.287Z,6.3
2019-03-03T02:30:03.417Z,6.3
2019-03-03T02:31:02.960Z,6.3
2019-03-03T02:32:03.128Z,6.3
2019-03-03T02:33:02.787Z,6.3
2019-03-03T02:34:03.241Z,6.4
2019-03-03T02:35:03.286Z,6.3
2019-03-03T02:36:03.360Z,6.3
2019-03-03T02:37:03.233Z,6.4
2019-03-03T02:38:03.189Z,6.4
2019-03-03T02:39:03.231Z,6.4
2019-03-03T02:40:02.107Z,6.4
2019-03-03T02:41:03.244Z,6.4
2019-03-03T02:42:03.441Z,6.4
2019-03-03T02:43:03.688Z,6.4
2019-03-03T02:44:02.797Z,6.4
2019-03-03T02:45:03.239Z,6.4
2019-03-03T02:46:02.962Z,6.4
2019-03-03T02:47:03.178Z,6.4
2019-03-03T02:48:02.812Z,6.4
2019-03-03T02:49:03.031Z,6.4
2019-03-03T02:50:02.976Z,6.4
2019-03-03T02:51:02.918Z,6.4
2019-03-03T02:52:02.922Z,6.5
2019-03-03T02:53:03.796Z,6.4
2019-03-03T02:54:02.851Z,6.4
2019-03-03T02:55:02.944Z,6.4
2019-03-03T02:56:03.413Z,6.4
2019-03-03T02:57:02.454Z,6.4
2019-03-03T02:58:02.916Z,6.4
2019-03-03T02:59:02.936Z,6.4
2019-03-03T03:00:03.229Z,6.4
2019-03-03T03:01:02.827Z,6.5
2019-03-03T03:02:03.018Z,6.5
2019-03-03T03:03:03.199Z,6.6
2019-03-03T03:04:03.525Z,6.6
2019-03-03T03:05:02.996Z,6.6
2019-03-03T03:06:02.876Z,6.6
2019-03-03T03:07:02.856Z,6.6
2019-03-03T03:08:02.998Z,6.6
2019-03-03T03:09:02.850Z,6.6
2019-03-03T03:10:02.957Z,6.6
2019-03-03T03:11:03.521Z,6.6
2019-03-03T03:12:03.743Z,6.6
2019-03-03T03:13:03.649Z,6.6
2019-03-03T03:14:03.668Z,6.5
2019-03-03T03:15:03.520Z,6.6
2019-03-03T03:16:03.405Z,6.6
2019-03-03T03:17:03.495Z,6.6
2019-03-03T03:18:03.581Z,6.6
2019-03-03T03:19:03.530Z,6.6
2019-03-03T03:20:03.431Z,6.6
2019-03-03T03:21:03.376Z,6.6
2019-03-03T03:22:03.445Z,6.5
2019-03-03T03:23:03.570Z,6.5
2019-03-03T03:24:03.315Z,6.5
2019-03-03T03:25:03.470Z,6.5
2019-03-03T03:26:03.412Z,6.5
2019-03-03T03:27:03.245Z,6.5
2019-03-03T03:28:03.114Z,6.5
2019-03-03T03:29:03.440Z,6.5
2019-03-03T03:30:03.362Z,6.5
2019-03-03T03:31:03.315Z,6.5
2019-03-03T03:32:03.264Z,6.5
2019-03-03T03:33:02.885Z,6.5
2019-03-03T03:34:03.369Z,6.5
2019-03-03T03:35:03.162Z,6.5
2019-03-03T03:36:03.003Z,6.5
2019-03-03T03:37:02.929Z,6.6
2019-03-03T03:38:03.265Z,6.6
2019-03-03T03:39:01.799Z,6.5
2019-03-03T03:40:03.124Z,6.6
2019-03-03T03:41:03.121Z,6.6
2019-03-03T03:42:03.074Z,6.5
2019-03-03T03:43:02.686Z,6.5
2019-03-03T03:44:03.010Z,6.5
2019-03-03T03:45:02.982Z,6.6
2019-03-03T03:46:03.019Z,6.5
2019-03-03T03:47:03.006Z,6.6
2019-03-03T03:48:03.691Z,6.6
2019-03-03T03:49:03.775Z,6.6
2019-03-03T03:50:02.802Z,6.6
2019-03-03T03:51:02.827Z,6.5
2019-03-03T03:52:03.586Z,6.6
2019-03-03T03:53:03.667Z,6.6
2019-03-03T03:54:03.573Z,6.6
2019-03-03T03:55:02.836Z,6.6
2019-03-03T03:56:03.705Z,6.6
2019-03-03T03:57:02.623Z,6.6
2019-03-03T03:58:03.749Z,6.5
2019-03-03T03:59:03.713Z,6.5
2019-03-03T04:00:03.661Z,6.6
2019-03-03T04:01:03.543Z,6.5
2019-03-03T04:02:03.479Z,6.6
2019-03-03T04:03:03.386Z,6.6
2019-03-03T04:04:03.699Z,6.6
2019-03-03T04:05:03.670Z,6.5
2019-03-03T04:06:03.640Z,6.5
2019-03-03T04:07:03.234Z,6.5
2019-03-03T04:08:03.446Z,6.5
2019-03-03T04:09:03.523Z,6.5
2019-03-03T04:10:03.298Z,6.5
2019-03-03T04:11:03.547Z,6.6
2019-03-03T04:12:03.358Z,6.5
2019-03-03T04:13:03.355Z,6.5
2019-03-03T04:14:03.396Z,6.5
2019-03-03T04:15:03.330Z,6.5
2019-03-03T04:16:03.342Z,6.5
2019-03-03T04:17:03.333Z,6.6
2019-03-03T04:18:03.112Z,6.6
2019-03-03T04:19:03.356Z,6.6
2019-03-03T04:20:03.142Z,6.5
2019-03-03T04:21:03.379Z,6.6
2019-03-03T04:22:02.773Z,6.6
2019-03-03T04:23:03.495Z,6.6
2019-03-03T04:24:03.243Z,6.6
2019-03-03T04:25:03.234Z,6.6
2019-03-03T04:26:03.168Z,6.6
2019-03-03T04:27:02.923Z,6.5
2019-03-03T04:28:03.239Z,6.6
2019-03-03T04:29:02.851Z,6.6
2019-03-03T04:30:03.514Z,6.6
2019-03-03T04:31:02.747Z,6.5
2019-03-03T04:32:03.160Z,6.6
2019-03-03T04:33:03.621Z,6.5
2019-03-03T04:34:02.895Z,6.6
2019-03-03T04:35:02.852Z,6.6
2019-03-03T04:36:03.138Z,6.5
2019-03-03T04:37:02.957Z,6.5
2019-03-03T04:38:02.973Z,6.5
2019-03-03T04:39:03.049Z,6.5
2019-03-03T04:40:02.996Z,6.5
2019-03-03T04:41:02.907Z,6.5
2019-03-03T04:42:02.677Z,6.5
2019-03-03T04:43:02.547Z,6.5
2019-03-03T04:44:03.667Z,6.5
2019-03-03T04:45:02.676Z,6.5
2019-03-03T04:46:03.576Z,6.5
2019-03-03T04:47:03.090Z,6.5
2019-03-03T04:48:03.651Z,6.5
2019-03-03T04:49:02.716Z,6.4
2019-03-03T04:50:03.842Z,6.5
2019-03-03T04:51:03.323Z,6.5
2019-03-03T04:52:03.587Z,6.5
2019-03-03T04:53:03.847Z,6.4
2019-03-03T04:54:03.555Z,6.5
2019-03-03T04:55:03.402Z,6.5
2019-03-03T04:56:03.636Z,6.5
2019-03-03T04:57:03.418Z,6.5
2019-03-03T04:58:02.981Z,6.5
2019-03-03T04:59:03.110Z,6.5
2019-03-03T05:00:03.352Z,6.5
2019-03-03T05:01:03.176Z,6.5
2019-03-03T05:02:02.664Z,6.6
2019-03-03T05:03:03.155Z,6.6
2019-03-03T05:04:03.211Z,6.6
2019-03-03T05:05:03.297Z,6.6
2019-03-03T05:06:02.907Z,6.6
2019-03-03T05:07:03.209Z,6.6
2019-03-03T05:08:03.052Z,6.6
2019-03-03T05:09:03.205Z,6.6
2019-03-03T05:10:03.214Z,6.6
2019-03-03T05:11:03.368Z,6.6
2019-03-03T05:12:03.027Z,6.6
2019-03-03T05:13:02.928Z,6.6
2019-03-03T05:14:02.848Z,6.6
2019-03-03T05:15:03.081Z,6.6
2019-03-03T05:16:02.895Z,6.7
2019-03-03T05:17:02.768Z,6.7
2019-03-03T05:18:02.656Z,6.7
2019-03-03T05:19:03.731Z,6.7
2019-03-03T05:20:02.818Z,6.7
2019-03-03T05:21:03.714Z,6.7
2019-03-03T05:22:03.610Z,6.7
2019-03-03T05:23:03.587Z,6.6
2019-03-03T05:24:02.897Z,6.6
2019-03-03T05:25:03.623Z,6.6
2019-03-03T05:26:03.675Z,6.6
2019-03-03T05:27:03.460Z,6.6
2019-03-03T05:28:03.402Z,6.6
2019-03-03T05:29:03.453Z,6.6
2019-03-03T05:30:03.930Z,6.6
2019-03-03T05:31:03.551Z,6.6
2019-03-03T05:32:03.370Z,6.6
2019-03-03T05:33:03.363Z,6.7
2019-03-03T05:34:03.346Z,6.7
2019-03-03T05:35:03.713Z,6.7
2019-03-03T05:36:03.316Z,6.7
2019-03-03T05:37:03.303Z,6.7
2019-03-03T05:38:03.538Z,6.7
2019-03-03T05:39:03.447Z,6.7
2019-03-03T05:40:03.528Z,6.7
2019-03-03T05:41:03.327Z,6.7
2019-03-03T05:42:03.425Z,6.6
2019-03-03T05:43:03.245Z,6.7
2019-03-03T05:44:03.302Z,6.7
2019-03-03T05:45:03.292Z,6.6
2019-03-03T05:46:03.298Z,6.6
2019-03-03T05:47:03.402Z,6.6
2019-03-03T05:48:03.403Z,6.6
2019-03-03T05:49:03.108Z,6.6
2019-03-03T05:50:03.294Z,6.6
2019-03-03T05:51:03.010Z,6.6
2019-03-03T05:52:03.774Z,6.6
2019-03-03T05:53:02.957Z,6.6
2019-03-03T05:54:03.085Z,6.6
2019-03-03T05:55:03.140Z,6.6
2019-03-03T05:56:02.874Z,6.6
2019-03-03T05:57:02.962Z,6.6
2019-03-03T05:58:03.082Z,6.6
2019-03-03T05:59:03.255Z,6.6
2019-03-03T06:00:03.015Z,6.6
2019-03-03T06:01:02.991Z,6.6
2019-03-03T06:02:02.934Z,6.6
2019-03-03T06:03:02.485Z,6.6
2019-03-03T06:04:03.139Z,6.6
2019-03-03T06:05:02.869Z,6.7
2019-03-03T06:06:03.047Z,6.6
2019-03-03T06:07:03.594Z,6.7
2019-03-03T06:08:02.793Z,6.7
2019-03-03T06:09:03.613Z,6.7
2019-03-03T06:10:03.733Z,6.7
2019-03-03T06:11:03.547Z,6.7
2019-03-03T06:12:03.576Z,6.7
2019-03-03T06:13:03.733Z,6.7
2019-03-03T06:14:03.604Z,6.7
2019-03-03T06:15:03.523Z,6.7
2019-03-03T06:16:03.730Z,6.7
2019-03-03T06:17:03.502Z,6.7
2019-03-03T06:18:03.432Z,6.7
2019-03-03T06:19:03.825Z,6.7
2019-03-03T06:20:03.393Z,6.7
2019-03-03T06:21:03.251Z,6.7
2019-03-03T06:22:03.549Z,6.8
2019-03-03T06:23:03.418Z,6.7
2019-03-03T06:24:03.224Z,6.7
2019-03-03T06:25:03.555Z,6.8
2019-03-03T06:26:03.364Z,6.7
2019-03-03T06:27:03.409Z,6.8
2019-03-03T06:28:03.082Z,6.8
2019-03-03T06:29:03.261Z,6.8
2019-03-03T06:30:05.658Z,6.8
2019-03-03T06:31:03.359Z,6.8
2019-03-03T06:32:03.151Z,6.8
2019-03-03T06:33:03.303Z,6.8
2019-03-03T06:34:03.042Z,6.8
2019-03-03T06:35:03.264Z,6.8
2019-03-03T06:36:03.259Z,6.8
2019-03-03T06:37:03.320Z,6.8
2019-03-03T06:38:03.303Z,6.8
2019-03-03T06:39:02.790Z,6.8
2019-03-03T06:40:03.284Z,6.8
2019-03-03T06:41:03.141Z,6.9
2019-03-03T06:42:03.335Z,6.9
2019-03-03T06:43:03.288Z,6.9
2019-03-03T06:44:03.341Z,6.9
2019-03-03T06:45:03.019Z,6.9
2019-03-03T06:46:03.108Z,6.9
2019-03-03T06:47:03.082Z,6.9
2019-03-03T06:48:02.964Z,6.9
2019-03-03T06:49:03.032Z,6.9
2019-03-03T06:50:03.160Z,6.9
2019-03-03T06:51:03.272Z,6.9
2019-03-03T06:52:03.766Z,6.9
2019-03-03T06:53:02.867Z,6.9
2019-03-03T06:54:03.204Z,7.1
2019-03-03T06:55:02.909Z,7.2
2019-03-03T06:56:02.810Z,7.3
2019-03-03T06:57:03.033Z,7.3
2019-03-03T06:58:02.542Z,7.3
2019-03-03T06:59:03.610Z,7.4
2019-03-03T07:00:02.847Z,7.4
2019-03-03T07:01:03.460Z,7.4
2019-03-03T07:02:02.660Z,7.4
2019-03-03T07:03:02.999Z,7.4
2019-03-03T07:04:02.997Z,7.6
2019-03-03T07:05:03.027Z,7.6
2019-03-03T07:06:02.929Z,7.6
2019-03-03T07:07:04.299Z,7.7
2019-03-03T07:08:03.002Z,7.8
2019-03-03T07:09:03.561Z,7.8
2019-03-03T07:10:03.671Z,7.9
2019-03-03T07:11:03.674Z,8
2019-03-03T07:12:03.592Z,8.1
2019-03-03T07:13:03.807Z,8.1
2019-03-03T07:14:03.639Z,8.2
2019-03-03T07:15:03.625Z,8.3
2019-03-03T07:16:03.348Z,8.4
2019-03-03T07:17:03.713Z,8.4
2019-03-03T07:18:03.348Z,8.4
2019-03-03T07:19:03.476Z,8.4
2019-03-03T07:20:03.469Z,8.4
2019-03-03T07:21:03.377Z,8.4
2019-03-03T07:22:03.492Z,8.4
2019-03-03T07:23:03.420Z,8.5
2019-03-03T07:24:03.380Z,8.4
2019-03-03T07:25:03.491Z,8.4
2019-03-03T07:26:03.038Z,8.4
2019-03-03T07:27:03.213Z,8.4
2019-03-03T07:28:03.372Z,8.4
2019-03-03T07:29:03.126Z,8.4
2019-03-03T07:30:03.316Z,8.4
2019-03-03T07:31:03.052Z,8.4
2019-03-03T07:32:03.341Z,8.4
2019-03-03T07:33:03.192Z,8.4
2019-03-03T07:34:03.302Z,8.4
2019-03-03T07:35:03.203Z,8.4
2019-03-03T07:36:03.217Z,8.4
2019-03-03T07:37:03.182Z,8.4
2019-03-03T07:38:02.944Z,8.4
2019-03-03T07:39:02.987Z,8.5
2019-03-03T07:40:02.738Z,8.5
2019-03-03T07:41:03.099Z,8.5
2019-03-03T07:42:02.975Z,8.5
2019-03-03T07:43:02.998Z,8.5
2019-03-03T07:44:02.984Z,8.5
2019-03-03T07:45:04.742Z,8.6
2019-03-03T07:46:03.663Z,8.6
2019-03-03T07:47:02.879Z,8.6
2019-03-03T07:48:03.756Z,8.6
2019-03-03T07:49:04.311Z,8.6
2019-03-03T07:50:03.413Z,8.6
2019-03-03T07:51:03.002Z,8.6
2019-03-03T07:52:02.974Z,8.7
2019-03-03T07:53:03.725Z,8.7
2019-03-03T07:54:03.828Z,8.8
2019-03-03T07:55:03.726Z,8.8
2019-03-03T07:56:03.741Z,8.8
2019-03-03T07:57:02.609Z,8.9
2019-03-03T07:58:03.652Z,9
2019-03-03T07:59:03.428Z,9
2019-03-03T08:00:03.681Z,9
2019-03-03T08:01:03.421Z,9
2019-03-03T08:02:02.778Z,9
2019-03-03T08:03:03.454Z,9
2019-03-03T08:04:03.828Z,9
2019-03-03T08:05:02.920Z,9
2019-03-03T08:06:03.528Z,9.1
2019-03-03T08:07:03.462Z,9.1
2019-03-03T08:08:04.046Z,9.1
2019-03-03T08:09:03.433Z,9.1
2019-03-03T08:10:03.572Z,9.2
2019-03-03T08:11:03.736Z,9.3
2019-03-03T08:12:03.753Z,9.3
2019-03-03T08:13:09.833Z,9.4
2019-03-03T08:14:03.577Z,9.3
2019-03-03T08:15:03.298Z,9.4
2019-03-03T08:16:02.893Z,9.5
2019-03-03T08:17:03.423Z,9.5
2019-03-03T08:18:03.389Z,9.6
2019-03-03T08:19:03.274Z,9.6
2019-03-03T08:20:03.529Z,9.6
2019-03-03T08:21:02.060Z,9.7
2019-03-03T08:22:03.398Z,9.7
2019-03-03T08:23:03.260Z,9.7
2019-03-03T08:24:03.277Z,9.7
2019-03-03T08:25:03.166Z,9.8
2019-03-03T08:26:03.235Z,9.8
2019-03-03T08:27:03.196Z,9.8
2019-03-03T08:28:02.985Z,9.8
2019-03-03T08:29:03.041Z,9.8
2019-03-03T08:30:02.974Z,9.7
2019-03-03T08:31:03.190Z,9.6
2019-03-03T08:32:02.848Z,9.5
2019-03-03T08:33:03.115Z,9.5
2019-03-03T08:34:02.804Z,9.5
2019-03-03T08:35:02.942Z,9.5
2019-03-03T08:36:02.678Z,9.4
2019-03-03T08:37:03.035Z,9.4
2019-03-03T08:38:03.789Z,9.4
2019-03-03T08:39:03.649Z,9.3
2019-03-03T08:40:02.840Z,9.3
2019-03-03T08:41:02.750Z,9.3
2019-03-03T08:42:03.789Z,9.3
2019-03-03T08:43:04.395Z,9.3
2019-03-03T08:44:03.621Z,9.3
2019-03-03T08:45:03.638Z,9.3
2019-03-03T08:46:03.574Z,9.3
2019-03-03T08:47:03.541Z,9.2
2019-03-03T08:48:03.575Z,9.3
2019-03-03T08:49:03.449Z,9.2
2019-03-03T08:50:02.927Z,9.2
2019-03-03T08:51:03.808Z,9.3
2019-03-03T08:52:02.977Z,9.3
2019-03-03T08:53:03.554Z,9.2
2019-03-03T08:54:03.333Z,9.3
2019-03-03T08:55:03.560Z,9.3
2019-03-03T08:56:03.430Z,9.3
2019-03-03T08:57:03.352Z,9.3
2019-03-03T08:58:03.318Z,9.2
2019-03-03T08:59:03.476Z,9.2
2019-03-03T09:00:03.461Z,9.3
2019-03-03T09:01:03.435Z,9.3
2019-03-03T09:02:03.424Z,9.3
2019-03-03T09:03:03.329Z,9.3
2019-03-03T09:04:03.386Z,9.3
2019-03-03T09:05:03.313Z,9.3
2019-03-03T09:06:03.241Z,9.3
2019-03-03T09:07:03.275Z,9.4
2019-03-03T09:08:03.286Z,9.4
2019-03-03T09:09:02.949Z,9.5
2019-03-03T09:10:03.257Z,9.6
2019-03-03T09:11:03.405Z,9.6
2019-03-03T09:12:03.110Z,9.6
2019-03-03T09:13:03.053Z,9.6
2019-03-03T09:14:03.135Z,9.7
2019-03-03T09:15:03.575Z,9.9
2019-03-03T09:16:03.661Z,10.1
2019-03-03T09:17:03.337Z,10
2019-03-03T09:18:02.964Z,10.1
2019-03-03T09:19:03.477Z,10
2019-03-03T09:20:02.538Z,9.9
2019-03-03T09:21:03.788Z,10
2019-03-03T09:22:04.929Z,9.9
2019-03-03T09:23:03.663Z,10
2019-03-03T09:24:03.488Z,10.1
2019-03-03T09:25:03.650Z,10.1
2019-03-03T09:26:03.645Z,10.1
2019-03-03T09:27:03.509Z,10.1
2019-03-03T09:28:03.059Z,10.1
2019-03-03T09:29:02.688Z,10.1
2019-03-03T09:30:03.645Z,10.1
2019-03-03T09:31:02.829Z,10.1
2019-03-03T09:32:03.635Z,10.2
2019-03-03T09:33:03.550Z,10.4
2019-03-03T09:34:03.295Z,10.6
2019-03-03T09:35:03.649Z,10.5
2019-03-03T09:36:03.447Z,10.6
2019-03-03T09:37:03.277Z,10.7
2019-03-03T09:38:03.442Z,10.7
2019-03-03T09:39:03.247Z,10.7
2019-03-03T09:40:09.980Z,10.8
2019-03-03T09:41:03.217Z,11
2019-03-03T09:42:03.608Z,11.1
2019-03-03T09:43:03.371Z,11.1
2019-03-03T09:44:03.338Z,11.1
2019-03-03T09:45:03.149Z,11.1
2019-03-03T09:46:03.371Z,11.5
2019-03-03T09:47:03.293Z,11.6
2019-03-03T09:48:03.300Z,11.4
2019-03-03T09:49:03.285Z,11.5
2019-03-03T09:50:03.003Z,11.5
2019-03-03T09:51:03.122Z,11.4
2019-03-03T09:52:03.046Z,11.6
2019-03-03T09:53:03.066Z,11.7
2019-03-03T09:54:03.185Z,11.7
2019-03-03T09:55:03.417Z,11.8
2019-03-03T09:56:03.183Z,11.9
2019-03-03T09:57:03.152Z,12.1
2019-03-03T09:58:03.722Z,12.1
2019-03-03T09:59:02.957Z,12.3
2019-03-03T10:00:03.227Z,12.6
2019-03-03T10:01:02.988Z,12.7
2019-03-03T10:02:03.031Z,12.6
2019-03-03T10:03:02.965Z,12.7
2019-03-03T10:04:02.974Z,12.9
2019-03-03T10:05:02.901Z,12.9
2019-03-03T10:06:03.126Z,12.8
2019-03-03T10:07:03.750Z,13
2019-03-03T10:08:03.721Z,13
2019-03-03T10:09:03.772Z,12.6
2019-03-03T10:10:03.826Z,12.6
2019-03-03T10:11:03.504Z,13
2019-03-03T10:12:03.649Z,12.9
2019-03-03T10:13:02.816Z,13.1
2019-03-03T10:14:03.760Z,12.9
2019-03-03T10:15:03.607Z,13.1
2019-03-03T10:16:03.746Z,13.4
2019-03-03T10:17:02.747Z,13.3
2019-03-03T10:18:03.341Z,13.1
2019-03-03T10:19:07.569Z,13.2
2019-03-03T10:20:03.770Z,13.2
2019-03-03T10:21:03.651Z,12.8
2019-03-03T10:22:03.137Z,13
2019-03-03T10:23:03.558Z,13.1
2019-03-03T10:24:03.616Z,13.1
2019-03-03T10:25:03.230Z,13.1
2019-03-03T10:26:03.432Z,13
2019-03-03T10:27:03.310Z,13.2
2019-03-03T10:28:03.531Z,13.4
2019-03-03T10:29:03.265Z,13.7
2019-03-03T10:30:03.557Z,13.7
2019-03-03T10:31:03.054Z,13.8
2019-03-03T10:32:03.375Z,13.7
2019-03-03T10:33:03.117Z,13.5
2019-03-03T10:34:03.046Z,13.3
2019-03-03T10:35:03.181Z,13
2019-03-03T10:36:03.226Z,13.2
2019-03-03T10:37:03.291Z,13.4
2019-03-03T10:38:03.115Z,13.4
2019-03-03T10:39:03.105Z,13.6
2019-03-03T10:40:04.041Z,13.7
2019-03-03T10:41:03.076Z,13.7
2019-03-03T10:42:02.571Z,13.8
2019-03-03T10:43:02.954Z,14.1
2019-03-03T10:44:03.174Z,14.1
2019-03-03T10:45:03.235Z,14.1
2019-03-03T10:46:02.827Z,13.8
2019-03-03T10:47:02.970Z,13.5
2019-03-03T10:48:03.270Z,13.4
2019-03-03T10:49:03.098Z,13.4
2019-03-03T10:50:02.939Z,13.3
2019-03-03T10:51:03.072Z,13.3
2019-03-03T10:52:02.905Z,13.4
2019-03-03T10:53:03.510Z,13.1
2019-03-03T10:54:02.887Z,12.9
2019-03-03T10:55:02.942Z,12.8
2019-03-03T10:56:03.081Z,12.8
2019-03-03T10:57:02.899Z,12.6
2019-03-03T10:58:02.968Z,12.6
2019-03-03T10:59:03.332Z,12.8
2019-03-03T11:00:03.886Z,12.9
2019-03-03T11:01:03.821Z,13.2
2019-03-03T11:02:03.533Z,13.5
2019-03-03T11:03:03.749Z,13.7
2019-03-03T11:04:02.656Z,13.7
2019-03-03T11:05:03.873Z,13.8
2019-03-03T11:06:03.792Z,13.9
2019-03-03T11:07:03.701Z,13.8
2019-03-03T11:08:03.632Z,14.1
2019-03-03T11:09:03.711Z,14.3
2019-03-03T11:10:03.571Z,14.3
2019-03-03T11:11:03.665Z,14.4
2019-03-03T11:12:03.261Z,14.4
2019-03-03T11:13:03.375Z,14.4
2019-03-03T11:14:03.725Z,14.8
2019-03-03T11:15:03.610Z,14.4
2019-03-03T11:16:03.277Z,14.3
2019-03-03T11:17:03.408Z,14.3
2019-03-03T11:18:03.378Z,14.3
2019-03-03T11:19:02.788Z,14.2
2019-03-03T11:20:03.464Z,14.3
2019-03-03T11:21:03.064Z,14
2019-03-03T11:22:03.254Z,13.9
2019-03-03T11:23:03.049Z,13.9
2019-03-03T11:24:03.061Z,13.9
2019-03-03T11:25:02.708Z,14
2019-03-03T11:26:03.232Z,14
2019-03-03T11:27:03.256Z,13.9
2019-03-03T11:28:03.303Z,13.9
2019-03-03T11:29:03.191Z,13.8
2019-03-03T11:30:03.455Z,13.8
2019-03-03T11:31:03.146Z,13.7
2019-03-03T11:32:03.294Z,13.6
2019-03-03T11:33:03.089Z,13.5
2019-03-03T11:34:02.941Z,13.4
2019-03-03T11:35:03.358Z,13.6
2019-03-03T11:36:02.879Z,13.4
2019-03-03T11:37:03.042Z,13.4
2019-03-03T11:38:02.816Z,13.5
2019-03-03T11:39:03.221Z,13.5
2019-03-03T11:40:03.124Z,13.4
2019-03-03T11:41:02.931Z,13.3
2019-03-03T11:42:03.496Z,13.4
2019-03-03T11:43:03.089Z,13.5
2019-03-03T11:44:03.681Z,13.6
2019-03-03T11:45:03.779Z,13.7
2019-03-03T11:46:04.363Z,13.7
2019-03-03T11:47:02.945Z,13.6
2019-03-03T11:48:04.812Z,13.7
2019-03-03T11:49:03.620Z,13.8
2019-03-03T11:50:03.109Z,13.8
2019-03-03T11:51:03.846Z,13.8
2019-03-03T11:52:03.734Z,13.6
2019-03-03T11:53:03.789Z,13.6
2019-03-03T11:54:02.918Z,13.5
2019-03-03T11:55:03.021Z,13.4
2019-03-03T11:56:03.141Z,13.4
2019-03-03T11:57:04.064Z,13.6
2019-03-03T11:58:06.190Z,13.7
2019-03-03T11:59:02.822Z,13.7
2019-03-03T12:00:03.829Z,13.6
2019-03-03T12:01:03.014Z,13.5
2019-03-03T12:02:03.449Z,13.4
2019-03-03T12:03:03.806Z,13.4
2019-03-03T12:04:03.495Z,13.5
2019-03-03T12:05:03.692Z,13.7
2019-03-03T12:06:03.476Z,13.8
2019-03-03T12:07:03.594Z,13.6
2019-03-03T12:08:03.479Z,13.6
2019-03-03T12:09:03.490Z,13.5
2019-03-03T12:10:03.582Z,13.5
2019-03-03T12:11:03.647Z,13.4
2019-03-03T12:12:03.382Z,13.6
2019-03-03T12:13:03.336Z,13.4
2019-03-03T12:14:03.460Z,13.4
2019-03-03T12:15:03.638Z,13.6
2019-03-03T12:16:03.341Z,13.7
2019-03-03T12:17:03.328Z,13.8
2019-03-03T12:18:03.260Z,13.7
2019-03-03T12:19:02.883Z,13.8
2019-03-03T12:20:03.335Z,13.9
2019-03-03T12:21:03.153Z,13.9
2019-03-03T12:22:03.375Z,13.7
2019-03-03T12:23:03.141Z,13.9
2019-03-03T12:24:03.481Z,13.9
2019-03-03T12:25:03.485Z,13.8
2019-03-03T12:26:02.779Z,13.9
2019-03-03T12:27:03.168Z,13.8
2019-03-03T12:28:03.230Z,13.6
2019-03-03T12:29:03.047Z,13.6
2019-03-03T12:30:03.302Z,13.5
2019-03-03T12:31:03.049Z,13.3
2019-03-03T12:32:02.990Z,13.3
2019-03-03T12:33:02.771Z,13.3
2019-03-03T12:34:03.061Z,13.3
2019-03-03T12:35:03.079Z,13.4
2019-03-03T12:36:05.192Z,13.5
2019-03-03T12:37:03.606Z,13.5
2019-03-03T12:38:02.934Z,13.5
2019-03-03T12:39:03.066Z,13.5
2019-03-03T12:40:03.176Z,13.4
2019-03-03T12:41:03.116Z,13.4
2019-03-03T12:42:03.880Z,13.5
2019-03-03T12:43:02.713Z,13.4
2019-03-03T12:44:02.806Z,13.4
2019-03-03T12:45:02.984Z,13.4
2019-03-03T12:46:03.632Z,13.4
2019-03-03T12:47:03.814Z,13.4
2019-03-03T12:48:02.514Z,13.4
2019-03-03T12:49:03.661Z,13.3
2019-03-03T12:50:03.712Z,13.3
2019-03-03T12:51:03.304Z,13.2
2019-03-03T12:52:03.760Z,13.2
2019-03-03T12:53:03.531Z,13.3
2019-03-03T12:54:03.247Z,13.3
2019-03-03T12:55:03.526Z,13.3
2019-03-03T12:56:03.975Z,13.3
2019-03-03T12:57:03.697Z,13.2
2019-03-03T12:58:03.177Z,13.2
2019-03-03T12:59:03.197Z,13.2
2019-03-03T13:00:03.469Z,13.1
2019-03-03T13:01:02.976Z,13.1
2019-03-03T13:02:03.638Z,13.1
2019-03-03T13:03:03.569Z,12.9
2019-03-03T13:04:03.613Z,13
2019-03-03T13:05:03.737Z,13.1
2019-03-03T13:06:03.450Z,13.2
2019-03-03T13:07:03.517Z,13.2
2019-03-03T13:08:03.398Z,13.2
2019-03-03T13:09:03.642Z,13.2
2019-03-03T13:10:03.668Z,13.1
2019-03-03T13:11:03.240Z,13.1
2019-03-03T13:12:03.061Z,13
2019-03-03T13:13:03.268Z,13
2019-03-03T13:14:02.638Z,13
2019-03-03T13:15:03.157Z,13.1
2019-03-03T13:16:03.236Z,13
2019-03-03T13:17:03.284Z,13.1
2019-03-03T13:18:03.082Z,13.2
2019-03-03T13:19:03.020Z,13.3
2019-03-03T13:20:02.976Z,13.4
2019-03-03T13:21:03.801Z,13.6
2019-03-03T13:22:03.101Z,13.7
2019-03-03T13:23:02.722Z,13.6
2019-03-03T13:24:03.253Z,13.7
2019-03-03T13:25:03.514Z,13.8
2019-03-03T13:26:02.826Z,13.8
2019-03-03T13:27:03.803Z,13.8
2019-03-03T13:28:02.792Z,13.8
2019-03-03T13:29:03.637Z,13.6
2019-03-03T13:30:03.119Z,13.6
2019-03-03T13:31:03.668Z,13.5
2019-03-03T13:32:03.728Z,13.5
2019-03-03T13:33:03.570Z,13.6
2019-03-03T13:34:03.729Z,13.6
2019-03-03T13:35:03.576Z,13.6
2019-03-03T13:36:03.534Z,13.4
2019-03-03T13:37:04.068Z,13.3
2019-03-03T13:38:03.438Z,13.1
2019-03-03T13:39:03.455Z,13.1